sensor_id;sensor_type;location;lat;lon;timestamp;P1;durP1;ratioP1;P2;durP2;ratioP2
27209;SDS011;14721;42.668;23.386;2024-01-15T00:00:28;50.43;;;19.90;;
27209;SDS011;14721;42.668;23.386;2024-01-15T00:06:10;158.83;;;31.67;;
27209;SDS011;14721;42.668;23.386;2024-01-15T00:08:49;50.67;;;23.07;;
27209;SDS011;14721;42.668;23.386;2024-01-15T00:11:26;58.97;;;21.17;;
27209;SDS011;14721;42.668;23.386;2024-01-15T00:14:22;59.23;;;22.93;;
27209;SDS011;14721;42.668;23.386;2024-01-15T01:32:30;62.80;;;27.17;;
27209;SDS011;14721;42.668;23.386;2024-01-15T01:35:51;66.57;;;27.47;;
27209;SDS011;14721;42.668;23.386;2024-01-15T01:38:39;90.10;;;29.97;;
27209;SDS011;14721;42.668;23.386;2024-01-15T01:41:39;83.73;;;30.80;;
27209;SDS011;14721;42.668;23.386;2024-01-15T01:44:29;72.10;;;27.47;;
27209;SDS011;14721;42.668;23.386;2024-01-15T01:47:01;63.37;;;26.33;;
27209;SDS011;14721;42.668;23.386;2024-01-15T01:53:44;65.57;;;25.47;;
27209;SDS011;14721;42.668;23.386;2024-01-15T01:56:33;65.87;;;27.00;;
27209;SDS011;14721;42.668;23.386;2024-01-15T02:00:10;67.30;;;26.37;;
27209;SDS011;14721;42.668;23.386;2024-01-15T02:02:57;51.50;;;25.37;;
27209;SDS011;14721;42.668;23.386;2024-01-15T02:05:36;51.93;;;21.70;;
27209;SDS011;14721;42.668;23.386;2024-01-15T02:23:13;56.30;;;22.47;;
27209;SDS011;14721;42.668;23.386;2024-01-15T03:26:53;31.63;;;14.00;;
27209;SDS011;14721;42.668;23.386;2024-01-15T03:30:24;39.67;;;15.87;;
27209;SDS011;14721;42.668;23.386;2024-01-15T03:33:33;58.27;;;17.93;;
27209;SDS011;14721;42.668;23.386;2024-01-15T03:36:30;42.03;;;15.83;;
27209;SDS011;14721;42.668;23.386;2024-01-15T03:39:41;38.87;;;15.83;;
27209;SDS011;14721;42.668;23.386;2024-01-15T03:43:29;34.57;;;15.00;;
27209;SDS011;14721;42.668;23.386;2024-01-15T03:46:43;36.80;;;15.60;;
27209;SDS011;14721;42.668;23.386;2024-01-15T03:57:20;36.07;;;16.03;;
27209;SDS011;14721;42.668;23.386;2024-01-15T03:59:57;41.70;;;16.60;;
27209;SDS011;14721;42.668;23.386;2024-01-15T04:05:53;38.30;;;16.63;;
27209;SDS011;14721;42.668;23.386;2024-01-15T04:30:44;35.07;;;14.97;;
27209;SDS011;14721;42.668;23.386;2024-01-15T04:36:12;31.00;;;13.60;;
27209;SDS011;14721;42.668;23.386;2024-01-15T04:39:20;37.67;;;16.07;;
27209;SDS011;14721;42.668;23.386;2024-01-15T04:41:53;28.67;;;14.13;;
27209;SDS011;14721;42.668;23.386;2024-01-15T04:44:37;35.70;;;13.97;;
27209;SDS011;14721;42.668;23.386;2024-01-15T04:47:06;39.87;;;15.63;;
27209;SDS011;14721;42.668;23.386;2024-01-15T04:49:31;43.93;;;16.23;;
27209;SDS011;14721;42.668;23.386;2024-01-15T04:51:58;53.77;;;18.17;;
27209;SDS011;14721;42.668;23.386;2024-01-15T04:54:38;42.23;;;17.70;;
27209;SDS011;14721;42.668;23.386;2024-01-15T04:57:08;41.50;;;15.53;;
27209;SDS011;14721;42.668;23.386;2024-01-15T04:59:38;50.83;;;18.47;;
27209;SDS011;14721;42.668;23.386;2024-01-15T05:02:08;35.83;;;15.70;;
27209;SDS011;14721;42.668;23.386;2024-01-15T05:04:51;45.73;;;18.70;;
27209;SDS011;14721;42.668;23.386;2024-01-15T05:07:24;43.27;;;18.50;;
27209;SDS011;14721;42.668;23.386;2024-01-15T05:09:57;37.37;;;15.57;;
27209;SDS011;14721;42.668;23.386;2024-01-15T05:12:23;31.30;;;16.40;;
27209;SDS011;14721;42.668;23.386;2024-01-15T05:14:50;40.13;;;17.23;;
27209;SDS011;14721;42.668;23.386;2024-01-15T05:17:16;37.73;;;17.47;;
27209;SDS011;14721;42.668;23.386;2024-01-15T05:19:41;34.27;;;15.43;;
27209;SDS011;14721;42.668;23.386;2024-01-15T05:22:07;37.90;;;17.43;;
27209;SDS011;14721;42.668;23.386;2024-01-15T05:24:33;31.40;;;16.00;;
27209;SDS011;14721;42.668;23.386;2024-01-15T05:27:04;38.07;;;14.30;;
27209;SDS011;14721;42.668;23.386;2024-01-15T05:29:30;52.43;;;15.50;;
27209;SDS011;14721;42.668;23.386;2024-01-15T05:31:59;47.73;;;16.50;;
27209;SDS011;14721;42.668;23.386;2024-01-15T05:34:27;50.63;;;18.03;;
27209;SDS011;14721;42.668;23.386;2024-01-15T05:36:53;49.17;;;16.67;;
27209;SDS011;14721;42.668;23.386;2024-01-15T05:42:16;41.33;;;18.70;;
27209;SDS011;14721;42.668;23.386;2024-01-15T05:44:59;36.70;;;16.37;;
27209;SDS011;14721;42.668;23.386;2024-01-15T05:47:38;44.13;;;16.67;;
27209;SDS011;14721;42.668;23.386;2024-01-15T05:50:26;35.57;;;16.60;;
27209;SDS011;14721;42.668;23.386;2024-01-15T05:53:03;65.20;;;22.87;;
27209;SDS011;14721;42.668;23.386;2024-01-15T05:55:48;51.43;;;21.93;;
27209;SDS011;14721;42.668;23.386;2024-01-15T05:58:27;40.40;;;15.70;;
27209;SDS011;14721;42.668;23.386;2024-01-15T06:03:38;44.80;;;19.43;;
27209;SDS011;14721;42.668;23.386;2024-01-15T06:06:25;48.30;;;20.90;;
27209;SDS011;14721;42.668;23.386;2024-01-15T06:08:52;56.77;;;20.93;;
27209;SDS011;14721;42.668;23.386;2024-01-15T06:11:31;61.00;;;22.67;;
27209;SDS011;14721;42.668;23.386;2024-01-15T06:13:58;51.47;;;21.53;;
27209;SDS011;14721;42.668;23.386;2024-01-15T06:16:29;57.00;;;23.83;;
27209;SDS011;14721;42.668;23.386;2024-01-15T06:18:55;48.17;;;21.77;;
27209;SDS011;14721;42.668;23.386;2024-01-15T06:21:20;53.10;;;22.40;;
27209;SDS011;14721;42.668;23.386;2024-01-15T06:23:50;61.23;;;27.03;;
27209;SDS011;14721;42.668;23.386;2024-01-15T06:26:18;60.83;;;25.43;;
27209;SDS011;14721;42.668;23.386;2024-01-15T06:28:43;79.03;;;29.73;;
27209;SDS011;14721;42.668;23.386;2024-01-15T06:31:09;59.50;;;27.33;;
27209;SDS011;14721;42.668;23.386;2024-01-15T06:33:38;71.30;;;29.37;;
27209;SDS011;14721;42.668;23.386;2024-01-15T06:36:04;69.43;;;29.27;;
27209;SDS011;14721;42.668;23.386;2024-01-15T06:38:30;69.60;;;28.50;;
27209;SDS011;14721;42.668;23.386;2024-01-15T06:40:56;70.10;;;28.80;;
27209;SDS011;14721;42.668;23.386;2024-01-15T06:43:28;54.27;;;22.47;;
27209;SDS011;14721;42.668;23.386;2024-01-15T06:48:35;49.67;;;23.50;;
27209;SDS011;14721;42.668;23.386;2024-01-15T06:51:03;53.20;;;26.37;;
27209;SDS011;14721;42.668;23.386;2024-01-15T06:53:29;86.70;;;37.83;;
27209;SDS011;14721;42.668;23.386;2024-01-15T06:55:56;77.27;;;28.93;;
27209;SDS011;14721;42.668;23.386;2024-01-15T06:58:21;70.10;;;30.40;;
27209;SDS011;14721;42.668;23.386;2024-01-15T07:00:47;72.87;;;30.63;;
27209;SDS011;14721;42.668;23.386;2024-01-15T07:03:13;63.03;;;29.17;;
27209;SDS011;14721;42.668;23.386;2024-01-15T07:05:39;71.93;;;30.53;;
27209;SDS011;14721;42.668;23.386;2024-01-15T07:08:04;72.33;;;29.93;;
27209;SDS011;14721;42.668;23.386;2024-01-15T07:10:33;55.20;;;24.23;;
27209;SDS011;14721;42.668;23.386;2024-01-15T07:12:58;62.40;;;28.97;;
27209;SDS011;14721;42.668;23.386;2024-01-15T07:15:24;60.40;;;24.67;;
27209;SDS011;14721;42.668;23.386;2024-01-15T07:17:52;62.40;;;25.73;;
27209;SDS011;14721;42.668;23.386;2024-01-15T07:20:18;54.73;;;23.90;;
27209;SDS011;14721;42.668;23.386;2024-01-15T07:22:44;62.00;;;26.30;;
27209;SDS011;14721;42.668;23.386;2024-01-15T07:25:10;49.27;;;21.93;;
27209;SDS011;14721;42.668;23.386;2024-01-15T07:27:35;60.07;;;27.33;;
27209;SDS011;14721;42.668;23.386;2024-01-15T07:30:11;58.30;;;24.47;;
27209;SDS011;14721;42.668;23.386;2024-01-15T07:32:38;56.07;;;22.23;;
27209;SDS011;14721;42.668;23.386;2024-01-15T07:35:07;48.43;;;22.87;;
27209;SDS011;14721;42.668;23.386;2024-01-15T07:38:03;41.13;;;20.10;;
27209;SDS011;14721;42.668;23.386;2024-01-15T07:40:38;51.40;;;23.53;;
27209;SDS011;14721;42.668;23.386;2024-01-15T07:43:31;63.10;;;24.97;;
27209;SDS011;14721;42.668;23.386;2024-01-15T07:46:08;70.17;;;27.93;;
27209;SDS011;14721;42.668;23.386;2024-01-15T07:48:54;76.47;;;29.63;;
27209;SDS011;14721;42.668;23.386;2024-01-15T07:51:44;66.77;;;30.43;;
27209;SDS011;14721;42.668;23.386;2024-01-15T07:54:32;75.03;;;29.63;;
27209;SDS011;14721;42.668;23.386;2024-01-15T07:57:02;65.87;;;26.10;;
27209;SDS011;14721;42.668;23.386;2024-01-15T07:59:31;41.53;;;19.73;;
27209;SDS011;14721;42.668;23.386;2024-01-15T08:01:59;53.60;;;21.83;;
27209;SDS011;14721;42.668;23.386;2024-01-15T08:04:44;51.13;;;22.37;;
27209;SDS011;14721;42.668;23.386;2024-01-15T08:07:11;56.63;;;22.03;;
27209;SDS011;14721;42.668;23.386;2024-01-15T08:09:48;44.20;;;21.30;;
27209;SDS011;14721;42.668;23.386;2024-01-15T08:12:14;60.30;;;23.83;;
27209;SDS011;14721;42.668;23.386;2024-01-15T08:14:39;49.77;;;24.60;;
27209;SDS011;14721;42.668;23.386;2024-01-15T08:17:05;40.47;;;17.23;;
27209;SDS011;14721;42.668;23.386;2024-01-15T08:19:31;38.77;;;18.07;;
27209;SDS011;14721;42.668;23.386;2024-01-15T08:22:13;47.87;;;20.90;;
27209;SDS011;14721;42.668;23.386;2024-01-15T08:24:47;31.27;;;14.93;;
27209;SDS011;14721;42.668;23.386;2024-01-15T08:27:13;30.40;;;14.47;;
27209;SDS011;14721;42.668;23.386;2024-01-15T08:29:44;37.50;;;16.10;;
27209;SDS011;14721;42.668;23.386;2024-01-15T08:32:27;50.77;;;21.90;;
27209;SDS011;14721;42.668;23.386;2024-01-15T08:34:56;69.67;;;30.50;;
27209;SDS011;14721;42.668;23.386;2024-01-15T08:37:24;91.27;;;37.83;;
27209;SDS011;14721;42.668;23.386;2024-01-15T08:39:49;75.93;;;34.17;;
27209;SDS011;14721;42.668;23.386;2024-01-15T08:42:17;77.57;;;34.13;;
27209;SDS011;14721;42.668;23.386;2024-01-15T08:44:43;79.10;;;34.80;;
27209;SDS011;14721;42.668;23.386;2024-01-15T08:47:09;74.60;;;32.80;;
27209;SDS011;14721;42.668;23.386;2024-01-15T08:49:34;82.00;;;33.23;;
27209;SDS011;14721;42.668;23.386;2024-01-15T08:52:03;81.43;;;36.10;;
27209;SDS011;14721;42.668;23.386;2024-01-15T08:54:32;79.90;;;34.13;;
27209;SDS011;14721;42.668;23.386;2024-01-15T08:56:58;71.83;;;32.77;;
27209;SDS011;14721;42.668;23.386;2024-01-15T08:59:24;72.40;;;34.63;;
27209;SDS011;14721;42.668;23.386;2024-01-15T09:01:53;80.40;;;33.87;;
27209;SDS011;14721;42.668;23.386;2024-01-15T09:04:29;65.17;;;29.13;;
27209;SDS011;14721;42.668;23.386;2024-01-15T09:06:55;58.87;;;25.50;;
27209;SDS011;14721;42.668;23.386;2024-01-15T09:09:20;58.77;;;23.43;;
27209;SDS011;14721;42.668;23.386;2024-01-15T09:11:56;60.80;;;25.73;;
27209;SDS011;14721;42.668;23.386;2024-01-15T09:14:22;46.87;;;22.87;;
27209;SDS011;14721;42.668;23.386;2024-01-15T09:16:49;54.77;;;22.90;;
27209;SDS011;14721;42.668;23.386;2024-01-15T09:19:16;56.13;;;22.00;;
27209;SDS011;14721;42.668;23.386;2024-01-15T09:21:42;53.80;;;22.97;;
27209;SDS011;14721;42.668;23.386;2024-01-15T09:24:07;48.87;;;21.73;;
27209;SDS011;14721;42.668;23.386;2024-01-15T09:26:33;42.93;;;17.73;;
27209;SDS011;14721;42.668;23.386;2024-01-15T09:28:58;40.80;;;19.10;;
27209;SDS011;14721;42.668;23.386;2024-01-15T09:31:24;34.17;;;15.00;;
27209;SDS011;14721;42.668;23.386;2024-01-15T09:33:50;35.43;;;16.67;;
27209;SDS011;14721;42.668;23.386;2024-01-15T09:36:17;33.43;;;15.43;;
27209;SDS011;14721;42.668;23.386;2024-01-15T09:38:44;37.00;;;13.70;;
27209;SDS011;14721;42.668;23.386;2024-01-15T09:41:10;31.47;;;13.20;;
27209;SDS011;14721;42.668;23.386;2024-01-15T09:43:36;28.27;;;14.07;;
27209;SDS011;14721;42.668;23.386;2024-01-15T09:46:10;29.57;;;12.30;;
27209;SDS011;14721;42.668;23.386;2024-01-15T09:48:36;27.03;;;12.20;;
27209;SDS011;14721;42.668;23.386;2024-01-15T09:51:03;32.10;;;15.13;;
27209;SDS011;14721;42.668;23.386;2024-01-15T09:53:31;32.53;;;13.70;;
27209;SDS011;14721;42.668;23.386;2024-01-15T09:55:58;35.43;;;16.10;;
27209;SDS011;14721;42.668;23.386;2024-01-15T09:58:25;39.63;;;17.00;;
27209;SDS011;14721;42.668;23.386;2024-01-15T10:00:51;42.00;;;19.07;;
27209;SDS011;14721;42.668;23.386;2024-01-15T10:03:19;38.97;;;16.47;;
27209;SDS011;14721;42.668;23.386;2024-01-15T10:05:46;44.90;;;14.90;;
27209;SDS011;14721;42.668;23.386;2024-01-15T10:08:13;47.40;;;17.57;;
27209;SDS011;14721;42.668;23.386;2024-01-15T10:10:40;37.77;;;15.50;;
27209;SDS011;14721;42.668;23.386;2024-01-15T10:13:06;44.90;;;17.90;;
27209;SDS011;14721;42.668;23.386;2024-01-15T10:15:34;32.60;;;14.83;;
27209;SDS011;14721;42.668;23.386;2024-01-15T10:18:03;37.57;;;16.07;;
27209;SDS011;14721;42.668;23.386;2024-01-15T10:20:28;35.63;;;16.67;;
27209;SDS011;14721;42.668;23.386;2024-01-15T10:22:57;38.07;;;15.47;;
27209;SDS011;14721;42.668;23.386;2024-01-15T10:25:23;39.20;;;16.27;;
27209;SDS011;14721;42.668;23.386;2024-01-15T10:28:03;34.17;;;16.63;;
27209;SDS011;14721;42.668;23.386;2024-01-15T10:30:29;40.13;;;16.07;;
27209;SDS011;14721;42.668;23.386;2024-01-15T10:33:03;38.93;;;16.80;;
27209;SDS011;14721;42.668;23.386;2024-01-15T10:35:30;41.20;;;15.97;;
27209;SDS011;14721;42.668;23.386;2024-01-15T10:37:58;43.73;;;17.73;;
27209;SDS011;14721;42.668;23.386;2024-01-15T10:40:30;44.73;;;17.87;;
27209;SDS011;14721;42.668;23.386;2024-01-15T10:42:56;49.73;;;20.60;;
27209;SDS011;14721;42.668;23.386;2024-01-15T10:45:22;58.73;;;22.73;;
27209;SDS011;14721;42.668;23.386;2024-01-15T10:47:48;52.53;;;24.10;;
27209;SDS011;14721;42.668;23.386;2024-01-15T10:50:14;66.77;;;28.20;;
27209;SDS011;14721;42.668;23.386;2024-01-15T10:52:41;59.57;;;28.27;;
27209;SDS011;14721;42.668;23.386;2024-01-15T10:55:08;73.90;;;30.50;;
27209;SDS011;14721;42.668;23.386;2024-01-15T10:57:35;70.37;;;32.17;;
27209;SDS011;14721;42.668;23.386;2024-01-15T11:00:04;68.20;;;31.97;;
27209;SDS011;14721;42.668;23.386;2024-01-15T11:02:35;75.40;;;33.80;;
27209;SDS011;14721;42.668;23.386;2024-01-15T11:05:02;67.90;;;32.07;;
27209;SDS011;14721;42.668;23.386;2024-01-15T11:07:29;71.97;;;32.13;;
27209;SDS011;14721;42.668;23.386;2024-01-15T11:10:05;63.53;;;29.57;;
27209;SDS011;14721;42.668;23.386;2024-01-15T11:12:31;67.50;;;27.80;;
27209;SDS011;14721;42.668;23.386;2024-01-15T11:15:06;61.80;;;28.93;;
27209;SDS011;14721;42.668;23.386;2024-01-15T11:17:57;61.37;;;26.57;;
27209;SDS011;14721;42.668;23.386;2024-01-15T11:20:26;55.47;;;25.10;;
27209;SDS011;14721;42.668;23.386;2024-01-15T11:22:52;55.67;;;25.63;;
27209;SDS011;14721;42.668;23.386;2024-01-15T11:25:18;59.47;;;25.37;;
27209;SDS011;14721;42.668;23.386;2024-01-15T11:27:45;54.33;;;23.90;;
27209;SDS011;14721;42.668;23.386;2024-01-15T11:30:20;50.93;;;23.67;;
27209;SDS011;14721;42.668;23.386;2024-01-15T11:32:50;61.53;;;25.03;;
27209;SDS011;14721;42.668;23.386;2024-01-15T11:35:16;50.97;;;21.80;;
27209;SDS011;14721;42.668;23.386;2024-01-15T11:40:20;43.73;;;19.87;;
27209;SDS011;14721;42.668;23.386;2024-01-15T11:42:46;43.33;;;19.67;;
27209;SDS011;14721;42.668;23.386;2024-01-15T11:45:18;54.73;;;20.03;;
27209;SDS011;14721;42.668;23.386;2024-01-15T11:50:29;36.63;;;18.30;;
27209;SDS011;14721;42.668;23.386;2024-01-15T11:52:59;39.17;;;18.60;;
27209;SDS011;14721;42.668;23.386;2024-01-15T11:55:27;44.80;;;19.37;;
27209;SDS011;14721;42.668;23.386;2024-01-15T11:58:00;37.27;;;17.90;;
27209;SDS011;14721;42.668;23.386;2024-01-15T12:00:30;41.97;;;18.37;;
27209;SDS011;14721;42.668;23.386;2024-01-15T12:02:58;46.37;;;18.53;;
27209;SDS011;14721;42.668;23.386;2024-01-15T12:05:23;44.83;;;18.70;;
27209;SDS011;14721;42.668;23.386;2024-01-15T12:07:49;26.53;;;14.50;;
27209;SDS011;14721;42.668;23.386;2024-01-15T12:10:19;33.13;;;16.53;;
27209;SDS011;14721;42.668;23.386;2024-01-15T12:15:30;38.47;;;17.23;;
27209;SDS011;14721;42.668;23.386;2024-01-15T12:17:57;36.77;;;16.33;;
27209;SDS011;14721;42.668;23.386;2024-01-15T12:20:24;33.33;;;16.60;;
27209;SDS011;14721;42.668;23.386;2024-01-15T12:22:51;37.07;;;16.83;;
27209;SDS011;14721;42.668;23.386;2024-01-15T12:25:16;41.77;;;16.40;;
27209;SDS011;14721;42.668;23.386;2024-01-15T12:27:45;31.43;;;16.63;;
27209;SDS011;14721;42.668;23.386;2024-01-15T12:30:20;40.37;;;16.57;;
27209;SDS011;14721;42.668;23.386;2024-01-15T12:32:50;32.80;;;14.93;;
27209;SDS011;14721;42.668;23.386;2024-01-15T12:35:15;33.03;;;16.67;;
27209;SDS011;14721;42.668;23.386;2024-01-15T12:37:41;39.07;;;15.83;;
27209;SDS011;14721;42.668;23.386;2024-01-15T12:40:08;50.97;;;17.90;;
27209;SDS011;14721;42.668;23.386;2024-01-15T12:42:41;40.00;;;17.50;;
27209;SDS011;14721;42.668;23.386;2024-01-15T12:45:07;41.53;;;18.43;;
27209;SDS011;14721;42.668;23.386;2024-01-15T12:47:34;48.20;;;17.67;;
27209;SDS011;14721;42.668;23.386;2024-01-15T12:50:01;39.57;;;16.17;;
27209;SDS011;14721;42.668;23.386;2024-01-15T12:52:29;36.37;;;17.57;;
27209;SDS011;14721;42.668;23.386;2024-01-15T12:54:55;45.97;;;19.50;;
27209;SDS011;14721;42.668;23.386;2024-01-15T12:57:21;43.93;;;17.80;;
27209;SDS011;14721;42.668;23.386;2024-01-15T12:59:47;38.90;;;17.73;;
27209;SDS011;14721;42.668;23.386;2024-01-15T13:02:14;36.93;;;15.30;;
27209;SDS011;14721;42.668;23.386;2024-01-15T13:04:41;33.63;;;15.87;;
27209;SDS011;14721;42.668;23.386;2024-01-15T13:07:10;33.37;;;15.87;;
27209;SDS011;14721;42.668;23.386;2024-01-15T13:09:35;39.63;;;14.77;;
27209;SDS011;14721;42.668;23.386;2024-01-15T13:12:01;39.13;;;14.27;;
27209;SDS011;14721;42.668;23.386;2024-01-15T13:14:28;30.27;;;14.27;;
27209;SDS011;14721;42.668;23.386;2024-01-15T13:16:55;31.00;;;14.30;;
27209;SDS011;14721;42.668;23.386;2024-01-15T13:19:21;36.10;;;14.47;;
27209;SDS011;14721;42.668;23.386;2024-01-15T13:21:51;25.60;;;12.03;;
27209;SDS011;14721;42.668;23.386;2024-01-15T13:24:20;33.13;;;12.73;;
27209;SDS011;14721;42.668;23.386;2024-01-15T13:26:46;36.17;;;15.40;;
27209;SDS011;14721;42.668;23.386;2024-01-15T13:29:12;30.83;;;14.03;;
27209;SDS011;14721;42.668;23.386;2024-01-15T13:31:38;28.37;;;15.53;;
27209;SDS011;14721;42.668;23.386;2024-01-15T13:34:03;28.53;;;14.63;;
27209;SDS011;14721;42.668;23.386;2024-01-15T13:36:29;37.33;;;14.93;;
27209;SDS011;14721;42.668;23.386;2024-01-15T13:38:54;32.23;;;13.83;;
27209;SDS011;14721;42.668;23.386;2024-01-15T13:41:20;30.97;;;14.93;;
27209;SDS011;14721;42.668;23.386;2024-01-15T13:43:55;33.20;;;15.33;;
27209;SDS011;14721;42.668;23.386;2024-01-15T13:46:22;39.80;;;16.63;;
27209;SDS011;14721;42.668;23.386;2024-01-15T13:48:49;38.10;;;16.70;;
27209;SDS011;14721;42.668;23.386;2024-01-15T13:51:14;43.67;;;19.33;;
27209;SDS011;14721;42.668;23.386;2024-01-15T13:53:40;38.87;;;18.20;;
27209;SDS011;14721;42.668;23.386;2024-01-15T13:56:06;39.23;;;17.90;;
27209;SDS011;14721;42.668;23.386;2024-01-15T13:58:33;40.67;;;17.43;;
27209;SDS011;14721;42.668;23.386;2024-01-15T14:00:59;43.30;;;18.77;;
27209;SDS011;14721;42.668;23.386;2024-01-15T14:03:25;40.47;;;20.70;;
27209;SDS011;14721;42.668;23.386;2024-01-15T14:05:54;60.60;;;18.00;;
27209;SDS011;14721;42.668;23.386;2024-01-15T14:08:19;43.60;;;18.63;;
27209;SDS011;14721;42.668;23.386;2024-01-15T14:10:45;42.87;;;18.37;;
27209;SDS011;14721;42.668;23.386;2024-01-15T14:13:10;39.40;;;16.73;;
27209;SDS011;14721;42.668;23.386;2024-01-15T14:15:36;49.77;;;19.57;;
27209;SDS011;14721;42.668;23.386;2024-01-15T14:18:02;38.93;;;18.20;;
27209;SDS011;14721;42.668;23.386;2024-01-15T14:20:27;53.07;;;19.10;;
27209;SDS011;14721;42.668;23.386;2024-01-15T14:22:53;41.67;;;17.70;;
27209;SDS011;14721;42.668;23.386;2024-01-15T14:25:19;43.93;;;19.17;;
27209;SDS011;14721;42.668;23.386;2024-01-15T14:27:46;47.43;;;18.50;;
27209;SDS011;14721;42.668;23.386;2024-01-15T14:30:11;38.07;;;17.80;;
27209;SDS011;14721;42.668;23.386;2024-01-15T14:32:40;36.70;;;18.23;;
27209;SDS011;14721;42.668;23.386;2024-01-15T14:35:06;40.30;;;17.13;;
27209;SDS011;14721;42.668;23.386;2024-01-15T14:37:35;36.13;;;16.43;;
27209;SDS011;14721;42.668;23.386;2024-01-15T14:40:01;39.10;;;17.73;;
27209;SDS011;14721;42.668;23.386;2024-01-15T14:42:27;43.40;;;17.03;;
27209;SDS011;14721;42.668;23.386;2024-01-15T14:44:53;45.57;;;17.17;;
27209;SDS011;14721;42.668;23.386;2024-01-15T14:47:19;37.17;;;15.20;;
27209;SDS011;14721;42.668;23.386;2024-01-15T14:49:48;43.97;;;18.20;;
27209;SDS011;14721;42.668;23.386;2024-01-15T14:52:14;36.30;;;17.63;;
27209;SDS011;14721;42.668;23.386;2024-01-15T14:54:39;52.27;;;19.90;;
27209;SDS011;14721;42.668;23.386;2024-01-15T14:57:06;45.27;;;17.77;;
27209;SDS011;14721;42.668;23.386;2024-01-15T14:59:32;46.73;;;17.90;;
27209;SDS011;14721;42.668;23.386;2024-01-15T15:01:57;38.80;;;18.80;;
27209;SDS011;14721;42.668;23.386;2024-01-15T15:04:23;49.67;;;17.93;;
27209;SDS011;14721;42.668;23.386;2024-01-15T15:06:48;43.80;;;19.47;;
27209;SDS011;14721;42.668;23.386;2024-01-15T15:09:15;57.00;;;24.87;;
27209;SDS011;14721;42.668;23.386;2024-01-15T15:11:40;49.83;;;22.43;;
27209;SDS011;14721;42.668;23.386;2024-01-15T15:14:06;60.17;;;21.63;;
27209;SDS011;14721;42.668;23.386;2024-01-15T15:16:32;71.33;;;31.33;;
27209;SDS011;14721;42.668;23.386;2024-01-15T15:18:57;61.23;;;23.27;;
27209;SDS011;14721;42.668;23.386;2024-01-15T15:21:23;55.17;;;23.57;;
27209;SDS011;14721;42.668;23.386;2024-01-15T15:23:48;59.93;;;26.73;;
27209;SDS011;14721;42.668;23.386;2024-01-15T15:26:15;52.23;;;25.40;;
27209;SDS011;14721;42.668;23.386;2024-01-15T15:28:41;62.60;;;25.03;;
27209;SDS011;14721;42.668;23.386;2024-01-15T15:31:06;62.10;;;25.10;;
27209;SDS011;14721;42.668;23.386;2024-01-15T15:33:38;53.93;;;23.67;;
27209;SDS011;14721;42.668;23.386;2024-01-15T15:36:04;53.07;;;23.73;;
27209;SDS011;14721;42.668;23.386;2024-01-15T15:38:33;52.47;;;22.37;;
27209;SDS011;14721;42.668;23.386;2024-01-15T15:41:01;46.23;;;21.40;;
27209;SDS011;14721;42.668;23.386;2024-01-15T15:46:13;50.40;;;23.57;;
27209;SDS011;14721;42.668;23.386;2024-01-15T15:48:38;49.00;;;22.93;;
27209;SDS011;14721;42.668;23.386;2024-01-15T15:51:04;54.83;;;23.13;;
27209;SDS011;14721;42.668;23.386;2024-01-15T15:53:29;62.77;;;22.87;;
27209;SDS011;14721;42.668;23.386;2024-01-15T15:55:55;53.87;;;24.67;;
27209;SDS011;14721;42.668;23.386;2024-01-15T15:58:21;49.27;;;22.10;;
27209;SDS011;14721;42.668;23.386;2024-01-15T16:00:46;49.80;;;22.80;;
27209;SDS011;14721;42.668;23.386;2024-01-15T16:03:12;54.70;;;23.50;;
27209;SDS011;14721;42.668;23.386;2024-01-15T16:05:37;46.03;;;21.50;;
27209;SDS011;14721;42.668;23.386;2024-01-15T16:08:03;51.47;;;21.20;;
27209;SDS011;14721;42.668;23.386;2024-01-15T16:10:29;57.93;;;22.53;;
27209;SDS011;14721;42.668;23.386;2024-01-15T16:12:54;57.03;;;23.20;;
27209;SDS011;14721;42.668;23.386;2024-01-15T16:15:20;50.57;;;20.67;;
27209;SDS011;14721;42.668;23.386;2024-01-15T16:17:47;43.67;;;21.47;;
27209;SDS011;14721;42.668;23.386;2024-01-15T16:20:13;52.70;;;21.77;;
27209;SDS011;14721;42.668;23.386;2024-01-15T16:22:42;53.03;;;21.37;;
27209;SDS011;14721;42.668;23.386;2024-01-15T16:25:08;58.37;;;21.80;;
27209;SDS011;14721;42.668;23.386;2024-01-15T16:27:33;56.10;;;22.70;;
27209;SDS011;14721;42.668;23.386;2024-01-15T16:29:59;55.50;;;21.67;;
27209;SDS011;14721;42.668;23.386;2024-01-15T16:32:25;55.67;;;21.27;;
27209;SDS011;14721;42.668;23.386;2024-01-15T16:34:50;46.60;;;21.33;;
27209;SDS011;14721;42.668;23.386;2024-01-15T16:37:16;59.07;;;24.07;;
27209;SDS011;14721;42.668;23.386;2024-01-15T16:39:44;56.40;;;22.03;;
27209;SDS011;14721;42.668;23.386;2024-01-15T16:42:10;50.70;;;20.73;;
27209;SDS011;14721;42.668;23.386;2024-01-15T16:44:36;61.07;;;25.43;;
27209;SDS011;14721;42.668;23.386;2024-01-15T16:47:03;55.03;;;21.33;;
27209;SDS011;14721;42.668;23.386;2024-01-15T16:49:29;37.93;;;18.60;;
27209;SDS011;14721;42.668;23.386;2024-01-15T16:51:55;53.40;;;20.47;;
27209;SDS011;14721;42.668;23.386;2024-01-15T16:54:21;47.63;;;21.60;;
27209;SDS011;14721;42.668;23.386;2024-01-15T16:56:47;47.90;;;19.80;;
27209;SDS011;14721;42.668;23.386;2024-01-15T16:59:15;47.60;;;19.60;;
27209;SDS011;14721;42.668;23.386;2024-01-15T17:01:41;49.57;;;18.80;;
27209;SDS011;14721;42.668;23.386;2024-01-15T17:04:08;42.77;;;19.23;;
27209;SDS011;14721;42.668;23.386;2024-01-15T17:06:33;39.70;;;17.97;;
27209;SDS011;14721;42.668;23.386;2024-01-15T17:08:59;45.20;;;19.60;;
27209;SDS011;14721;42.668;23.386;2024-01-15T17:11:24;65.07;;;24.93;;
27209;SDS011;14721;42.668;23.386;2024-01-15T17:13:53;48.70;;;18.73;;
27209;SDS011;14721;42.668;23.386;2024-01-15T17:16:18;50.67;;;20.50;;
27209;SDS011;14721;42.668;23.386;2024-01-15T17:18:44;48.27;;;18.77;;
27209;SDS011;14721;42.668;23.386;2024-01-15T17:21:09;50.33;;;19.27;;
27209;SDS011;14721;42.668;23.386;2024-01-15T17:23:35;47.40;;;21.23;;
27209;SDS011;14721;42.668;23.386;2024-01-15T17:26:01;44.20;;;20.40;;
27209;SDS011;14721;42.668;23.386;2024-01-15T17:28:27;44.53;;;20.17;;
27209;SDS011;14721;42.668;23.386;2024-01-15T17:30:53;36.33;;;17.03;;
27209;SDS011;14721;42.668;23.386;2024-01-15T17:33:22;43.20;;;19.83;;
27209;SDS011;14721;42.668;23.386;2024-01-15T17:35:52;43.60;;;18.37;;
27209;SDS011;14721;42.668;23.386;2024-01-15T17:38:28;43.80;;;19.67;;
27209;SDS011;14721;42.668;23.386;2024-01-15T17:41:03;43.47;;;19.97;;
27209;SDS011;14721;42.668;23.386;2024-01-15T17:43:42;38.20;;;17.60;;
27209;SDS011;14721;42.668;23.386;2024-01-15T17:46:15;46.60;;;18.57;;
27209;SDS011;14721;42.668;23.386;2024-01-15T17:48:55;39.73;;;16.90;;
27209;SDS011;14721;42.668;23.386;2024-01-15T17:51:38;34.70;;;16.90;;
27209;SDS011;14721;42.668;23.386;2024-01-15T17:54:03;42.90;;;17.80;;
27209;SDS011;14721;42.668;23.386;2024-01-15T17:56:51;43.60;;;18.40;;
27209;SDS011;14721;42.668;23.386;2024-01-15T17:59:26;49.10;;;18.97;;
27209;SDS011;14721;42.668;23.386;2024-01-15T18:02:23;40.07;;;18.80;;